• Join FlightAware (Why Join?)
  • Login
  • US Flag 
03:40PM EDT


 

Airport Tracker/Info


-or-


 

Live Flight TrackerFlight Track Log ✈ USC491 ✈ 23-Jan-2014 ✈ KADS - KHOU

Flight Track Log - Related Links

Times and Time Zones

All times are in EST time to prevent confusion due to time zone crossing. See the USC491 flight status page for this flight to view local times or setup timezone preferences in your user account.

Time Position Orientation Groundspeed Altitude Reporting Facility
EST Latitude Longitude Course Direction KTS MPH feet Rate Location/Type
08:54AM 32.9667 -96.8333 360° North 65 75 1,000  Level Dallas / Fort Worth TRACON
08:55AM 32.9833 -96.8333 360° North 74 85 2,100 1,140 Climbing Dallas / Fort Worth TRACON
08:56AM 32.9833 -96.8167 90° East 89 102 3,100 1,020 Climbing Dallas / Fort Worth TRACON
08:57AM 32.9500 -96.8167 180° South 121 139 4,100 420 Climbing Dallas / Fort Worth TRACON
08:58AM 32.9000 -96.8167 180° South 170 196 4,100  Level Dallas / Fort Worth TRACON
08:59AM 32.8667 -96.8167 180° South 170 196 4,100  Level Dallas / Fort Worth TRACON
09:00AM 32.8167 -96.8167 180° South 169 194 4,100 -60 Level Dallas / Fort Worth TRACON
09:01AM 32.7667 -96.8167 180° South 172 198 4,000  Descending Dallas / Fort Worth TRACON
09:02AM 32.7333 -96.8167 176° South 167 192 4,100  Climbing Dallas / Fort Worth TRACON
09:03AM 32.6833 -96.8167 180° South 169 194 4,000 420 Descending Dallas / Fort Worth TRACON
09:04AM 32.6333 -96.8167 180° South 112 129 5,100 480 Climbing Dallas / Fort Worth TRACON
09:05AM 32.6036 -96.8119 172° South 138 159 5,000  Descending Fort Worth Center
09:06AM 32.5603 -96.8067 174° South 154 177 5,100  Climbing Fort Worth Center
09:07AM 32.5169 -96.8008 174° South 156 180 5,100 -60 Level Fort Worth Center
09:08AM 32.4706 -96.7939 173° South 156 180 5,000 -60 Descending Fort Worth Center
09:09AM 32.4269 -96.7869 172° South 158 182 5,000  Level Fort Worth Center
09:10AM 32.3839 -96.7814 174° South 155 178 5,100  Climbing Fort Worth Center
09:11AM 32.3411 -96.7733 171° South 155 178 5,000  Descending Fort Worth Center
09:12AM 32.2942 -96.7644 171° South 157 181 5,100  Climbing Fort Worth Center
09:13AM 32.2511 -96.7561 171° South 156 180 5,100 -60 Level Fort Worth Center
09:14AM 32.2056 -96.7456 169° South 157 181 5,000 -60 Descending Fort Worth Center
09:15AM 32.1639 -96.7333 166° South 156 180 5,000  Level Fort Worth Center
09:16AM 32.1217 -96.7225 168° South 155 178 5,000  Level Fort Worth Center
09:17AM 32.0794 -96.7172 174° South 153 176 5,000  Level Fort Worth Center
09:18AM 32.0361 -96.7108 173° South 155 178 5,000  Level Fort Worth Center
09:19AM 31.9942 -96.7064 175° South 153 176 5,000  Level Fort Worth Center
09:20AM 31.9494 -96.6972 170° South 154 177 5,000  Level Fort Worth Center
09:21AM 31.9075 -96.6914 173° South 151 174 5,000  Level Fort Worth Center
09:22AM 31.8656 -96.6797 167° South 152 175 5,000  Level Fort Worth Center
09:23AM 31.8242 -96.6683 167° South 152 175 5,000  Level Fort Worth Center
09:25AM 31.7733 -96.6531 166° South 153 176 5,000  Level Houston Center
09:26AM 31.7325 -96.6422 167° South 152 175 5,000  Level Houston Center
09:27AM 31.6908 -96.6311 167° South 152 175 5,000  Level Houston Center
09:28AM 31.6481 -96.6197 167° South 154 177 5,000  Level Houston Center
09:29AM 31.5983 -96.6072 168° South 155 178 5,000  Level Houston Center
09:30AM 31.5567 -96.5969 168° South 153 176 5,000  Level Houston Center
09:31AM 31.5139 -96.5875 169° South 154 177 5,000  Level Houston Center
09:32AM 31.4717 -96.5794 171° South 153 176 5,000  Level Houston Center
09:33AM 31.4286 -96.5692 168° South 153 176 5,000  Level Houston Center
09:34AM 31.3864 -96.5611 171° South 154 177 5,000  Level Houston Center
09:35AM 31.3442 -96.5506 168° South 154 177 5,000  Level Houston Center
09:36AM 31.3028 -96.5394 167° South 152 175 5,000  Level Houston Center
09:37AM 31.2622 -96.5275 166° South 150 173 5,000  Level Houston Center
09:38AM 31.2214 -96.5175 168° South 149 171 5,000  Level Houston Center
09:39AM 31.1789 -96.5075 169° South 149 171 5,000  Level Houston Center
09:39AM 31.1728 -96.5053 163° South 151 174 5,000  Level Houston Center
09:40AM 31.1358 -96.4953 167° South 152 175 5,000  Level Houston Center
09:40AM 31.1317 -96.4947 173° South 150 173 5,000  Level Houston Center
09:41AM 31.0994 -96.4869 168° South 152 175 5,000  Level Houston Center
09:41AM 31.0897 -96.4833 162° South 150 173 5,000  Level Houston Center
09:42AM 31.0528 -96.4800 176° South 151 174 5,000  Level Houston Center
09:42AM 31.0469 -96.4808 187° South 152 175 5,000  Level Houston Center
09:43AM 31.0089 -96.4800 179° South 150 173 5,000  Level Houston Center
09:43AM 31.0056 -96.4794 172° South 150 173 5,000  Level Houston Center
09:44AM 30.9633 -96.4786 179° South 149 171 5,000  Level Houston Center
09:45AM 30.9267 -96.4769 178° South 152 175 5,000 60 Level Houston Center
09:45AM 30.9208 -96.4764 175° South 150 173 5,100  Climbing Houston Center
09:46AM 30.8867 -96.4742 177° South 154 177 5,000 -120 Descending Houston Center
09:46AM 30.8778 -96.4739 178° South 152 175 5,000  Level Houston Center
09:47AM 30.8447 -96.4739 180° South 156 180 5,000  Level Houston Center
09:47AM 30.8331 -96.4719 172° South 156 180 5,000  Level Houston Center
09:48AM 30.7958 -96.4669 173° South 155 178 5,000  Level Houston Center
09:48AM 30.7903 -96.4661 173° South 154 177 5,000  Level Houston Center
09:49AM 30.7558 -96.4642 177° South 152 175 5,000  Level Houston Center
09:49AM 30.7403 -96.4603 168° South 153 176 5,000  Level Houston Center
09:50AM 30.7089 -96.4525 168° South 152 175 5,000  Level Houston Center
09:50AM 30.6975 -96.4503 170° South 154 177 5,000  Level Houston Center
09:51AM 30.6683 -96.4447 171° South 155 178 5,000  Level Houston Center
09:51AM 30.6539 -96.4422 172° South 157 181 5,000  Level Houston Center
09:52AM 30.6217 -96.4378 173° South 158 182 5,000  Level Houston Center
09:52AM 30.6111 -96.4333 160° South 156 180 5,000  Level Houston Center
09:53AM 30.5831 -96.4275 170° South 152 175 5,000  Level Houston Center
09:53AM 30.5697 -96.4242 168° South 151 174 5,000  Level Houston Center
09:54AM 30.5378 -96.4131 163° South 148 170 5,000  Level Houston Center
09:54AM 30.5297 -96.4089 156° South 150 173 5,000  Level Houston Center
09:55AM 30.5025 -96.3928 153° Southeast 147 169 5,000  Level Houston Center
09:55AM 30.4919 -96.3867 153° Southeast 150 173 5,000  Level Houston Center
09:56AM 30.4628 -96.3681 151° Southeast 153 176 5,000  Level Houston Center
09:56AM 30.4556 -96.3639 154° Southeast 149 171 5,000 60 Level Houston Center
09:57AM 30.4211 -96.3461 156° South 145 167 5,100  Climbing Houston Center
09:57AM 30.4164 -96.3436 155° Southeast 151 174 5,000 -180 Descending Houston Center
09:58AM 30.3883 -96.3328 162° South 150 173 5,000 -120 Level Houston Center
09:58AM 30.3761 -96.3292 166° South 149 171 4,900 60 Descending Houston Center
09:59AM 30.3475 -96.3203 165° South 149 171 5,100  Climbing Houston Center
09:59AM 30.3286 -96.3150 166° South 150 173 4,900 -120 Descending Houston Center
10:00AM 30.3067 -96.3081 165° South 152 175 5,000  Climbing Houston Center
10:01AM 30.2881 -96.3008 161° South 151 174 4,900  Descending Houston Center
10:01AM 30.2608 -96.2889 159° South 152 175 5,000  Climbing Houston Center
10:02AM 30.2481 -96.2839 161° South 150 173 4,900  Descending Houston Center
10:02AM 30.2242 -96.2761 164° South 151 174 5,000 60 Climbing Houston Center
10:03AM 30.2069 -96.2681 158° South 153 176 5,000  Level Houston Center
10:03AM 30.1808 -96.2592 164° South 152 175 5,000  Level Houston Center
10:04AM 30.1661 -96.2550 166° South 151 174 5,000 60 Level Houston Center
10:04AM 30.1378 -96.2472 167° South 152 175 5,100  Climbing Houston Center
10:05AM 30.1228 -96.2425 165° South 150 173 5,000 -120 Descending Houston Center
10:05AM 30.1014 -96.2367 167° South 152 175 5,000  Level Houston Center
10:06AM 30.0819 -96.2292 162° South 152 175 5,000  Level Houston Center
10:06AM 30.0603 -96.2219 164° South 148 170 5,000  Level Houston Center
10:07AM 30.0419 -96.2142 160° South 151 174 5,000  Level Houston Center
10:07AM 30.0144 -96.2031 161° South 153 176 5,000  Level Houston Center
10:08AM 30.0014 -96.1986 164° South 153 176 5,000  Level Houston Center
10:08AM 29.9736 -96.1908 166° South 152 175 5,000  Level Houston Center
10:09AM 29.9617 -96.1842 154° Southeast 151 174 5,000  Level Houston Center
10:09AM 29.9375 -96.1611 140° Southeast 159 183 5,000  Level Houston Center
10:10AM 29.9239 -96.1439 132° Southeast 153 176 5,000  Level Houston Center
10:10AM 29.9072 -96.1261 137° Southeast 154 177 5,000 60 Level Houston Center
10:11AM 29.8944 -96.1078 129° Southeast 153 176 5,100  Climbing Houston Center
10:11AM 29.8769 -96.0908 140° Southeast 156 180 5,000 -120 Descending Houston Center
10:12AM 29.8639 -96.0719 129° Southeast 156 180 5,000 60 Level Houston Center
10:12AM 29.8467 -96.0558 141° Southeast 154 177 5,100  Climbing Houston Center
10:13AM 29.8336 -96.0386 131° Southeast 152 175 5,000 -120 Descending Houston Center
10:13AM 29.8186 -96.0228 138° Southeast 157 181 5,000 -300 Level Houston Center
10:14AM 29.8025 -96.0014 131° Southeast 157 181 4,700 -600 Descending Houston Center
10:14AM 29.7881 -95.9856 136° Southeast 169 194 4,400 -600 Descending Houston Center
10:15AM 29.7683 -95.9619 134° Southeast 169 194 4,100 -600 Descending Houston Center
10:15AM 29.7508 -95.9439 138° Southeast 171 197 3,800 -780 Descending Houston Center
10:16AM 29.7267 -95.9158 135° Southeast 172 198 3,300 -720 Descending Houston Center
10:16AM 29.7158 -95.9047 138° Southeast 171 197 3,100 -300 Descending Houston Center
10:17AM 29.6936 -95.8789 135° Southeast 171 197 3,000  Descending Houston Center
10:17AM 29.6836 -95.8700 142° Southeast 157 181 3,100  Climbing Houston Center
10:18AM 29.6631 -95.8444 133° Southeast 165 190 3,000 -120 Descending Houston Center
10:18AM 29.6572 -95.8322 119° Southeast 146 168 3,000  Level Houston Center
10:19AM 29.6464 -95.8019 112° Southeast 158 182 3,000  Level Houston Center
10:19AM 29.6447 -95.7856 97° East 150 173 3,000  Level Houston Center
10:20AM 29.6383 -95.7544 103° East 155 178 3,000  Level Houston Center
10:20AM 29.6342 -95.7386 107° East 152 175 3,000  Level Houston Center
10:21AM 29.6292 -95.7075 100° East 152 175 3,000  Level Houston Center
10:21AM 29.6258 -95.6939 106° East 153 176 3,000  Level Houston Center
10:22AM 29.6178 -95.6511 102° East 151 174 3,000  Level Houston Center
10:22AM 29.6147 -95.6400 108° East 152 175 3,000  Level Houston Center
10:23AM 29.6008 -95.6008 112° Southeast 144 166 3,000  Level Houston Center
10:24AM 29.5778 -95.5728 133° Southeast 148 170 3,000  Level Houston Center
10:24AM 29.5703 -95.5661 142° Southeast 145 167 3,000  Level Houston Center
10:25AM 29.5489 -95.5400 133° Southeast 147 169 3,000  Level Houston Center
10:25AM 29.5400 -95.5311 139° Southeast 147 169 3,000  Level Houston Center
10:26AM 29.5219 -95.5061 130° Southeast 146 168 3,000  Level Houston Center
10:27AM 29.5136 -95.4958 133° Southeast 145 167 3,000  Level Houston Center
10:27AM 29.4953 -95.4725 132° Southeast 144 166 3,000  Level Houston Center
10:28AM 29.4997 -95.4567 72° East 159 183 3,000  Level Houston Center
10:29AM 29.5336 -95.4142 47° Northeast 159 183 3,000 -240 Level Houston Center
10:30AM 29.5633 -95.3722 51° Northeast 166 191 2,500 -540 Descending Houston Center
10:31AM 29.5956 -95.3347 45° Northeast 157 181 2,000 -960 Descending Houston Center
10:32AM 29.6219 -95.3028 46° Northeast 124 143 600 -1,380 Descending Houston Center
10:34AM 29.6333 -95.2667 90° East  Level FlightAware Approximate